Chem Orion — V7GZ9 — position and weather

sailwx.info

Track history (hours):
 
Tides and Currents Weather Stations Pressure Air Temp Water Temp Dewpoint Dewpoint Depression Visibility Wind Speed Wind Dir Waves Ship Positions

Chem Orion

Last reported at 2017-Jul-16 10:44 UTC. Time now 2017-Aug-19 01:51 UTC.
Position N 01°16' E 103°23'.
Warning: this ship's position is 33 days out of date.

Length 125 m; draft 5.1 m.

Type: Ship (hazmat cat D). MMSI: 538002197.

Date/timePositionNaut miles runAvg speedWind from/ knotsBaromVisibWave heightAir tempDewpointWater temp
2017-Jul-16 10:44N 01°16' E 103°23'2 9.8
2017-Jul-16 10:30N 01°15' E 103°25'5 9.8
2017-Jul-16 09:59N 01°13' E 103°30'5 9.7
2017-Jul-16 09:30N 01°12' E 103°34'5 9.5
2017-Jul-16 09:00N 01°11' E 103°39'5 9.7
2017-Jul-16 08:30N 01°09' E 103°43'5 9.2
2017-Jul-16 08:00N 01°10' E 103°47'510.4
2017-Jul-16 07:30N 01°12' E 103°52'4 8.7
2017-Jul-16 06:59N 01°15' E 103°56'2 3.2
2017-Jul-16 06:24N 01°17' E 103°56'0 0.0
2017-Jul-16 04:24N 01°17' E 103°56'0 0.0
2017-Jul-16 03:54N 01°17' E 103°56'0 0.0
2017-Jul-16 02:51N 01°17' E 103°56'0 0.0
2017-Jul-16 02:27N 01°17' E 103°56'0 0.0
2017-Jul-16 02:00N 01°17' E 103°56'0 0.0
2017-Jul-16 01:18N 01°17' E 103°56'0 0.0
2017-Jul-16 00:57N 01°17' E 103°56'0 0.0
2017-Jul-16 00:30N 01°17' E 103°56'0 0.0
2017-Jul-16 00:00N 01°17' E 103°56'0 0.1
2017-Jul-15 23:00N 01°17' E 103°56'1 2.1
2017-Jul-15 22:30N 01°16' E 103°57'2 3.8
2017-Jul-15 22:00N 01°16' E 103°59'4 6.7
2017-Jul-15 21:22N 01°16' E 104°03'  
Track history (hours):
 
Tides and Currents Weather Stations Pressure Air Temp Water Temp Dewpoint Dewpoint Depression Visibility Wind Speed Wind Dir Waves Ship Positions

Chem Orion

Last reported at 2017-Jul-16 10:44 UTC. Time now 2017-Aug-19 01:51 UTC.
Position N 01°16' E 103°23'.
Warning: this ship's position is 33 days out of date.

Length 125 m; draft 5.1 m.

Type: Ship (hazmat cat D). MMSI: 538002197.

Date/timePositionNaut miles runAvg speedWind from/ knotsBaromVisibWave heightAir tempDewpointWater temp
2017-Jul-16 10:44N 01°16' E 103°23'2 9.8
2017-Jul-16 10:30N 01°15' E 103°25'5 9.8
2017-Jul-16 09:59N 01°13' E 103°30'5 9.7
2017-Jul-16 09:30N 01°12' E 103°34'5 9.5
2017-Jul-16 09:00N 01°11' E 103°39'5 9.7
2017-Jul-16 08:30N 01°09' E 103°43'5 9.2
2017-Jul-16 08:00N 01°10' E 103°47'510.4
2017-Jul-16 07:30N 01°12' E 103°52'4 8.7
2017-Jul-16 06:59N 01°15' E 103°56'2 3.2
2017-Jul-16 06:24N 01°17' E 103°56'0 0.0
2017-Jul-16 04:24N 01°17' E 103°56'0 0.0
2017-Jul-16 03:54N 01°17' E 103°56'0 0.0
2017-Jul-16 02:51N 01°17' E 103°56'0 0.0
2017-Jul-16 02:27N 01°17' E 103°56'0 0.0
2017-Jul-16 02:00N 01°17' E 103°56'0 0.0
2017-Jul-16 01:18N 01°17' E 103°56'0 0.0
2017-Jul-16 00:57N 01°17' E 103°56'0 0.0
2017-Jul-16 00:30N 01°17' E 103°56'0 0.0
2017-Jul-16 00:00N 01°17' E 103°56'0 0.1
2017-Jul-15 23:00N 01°17' E 103°56'1 2.1
2017-Jul-15 22:30N 01°16' E 103°57'2 3.8
2017-Jul-15 22:00N 01°16' E 103°59'4 6.7
2017-Jul-15 21:22N 01°16' E 104°03'  

Dump ship's entire track history